createdAt,value
2019-03-28T00:04:26.110Z,9.98
2019-03-28T00:09:32.011Z,10.15
2019-03-28T00:14:38.321Z,10.41
2019-03-28T00:19:45.122Z,10.36
2019-03-28T00:24:56.256Z,10.69
2019-03-28T00:30:02.267Z,10.40
2019-03-28T00:35:08.442Z,10.50
2019-03-28T00:40:16.962Z,9.92
2019-03-28T00:45:22.840Z,10.03
2019-03-28T00:50:28.551Z,10.29
2019-03-28T00:55:34.146Z,10.29
2019-03-28T01:00:41.339Z,10.37
2019-03-28T01:05:48.742Z,10.09
2019-03-28T01:10:56.837Z,10.07
2019-03-28T01:16:04.365Z,10.19
2019-03-28T01:21:10.552Z,10.36
2019-03-28T01:26:16.260Z,10.05
2019-03-28T01:31:21.998Z,10.23
2019-03-28T01:36:27.780Z,10.46
2019-03-28T01:41:35.170Z,10.17
2019-03-28T01:46:41.092Z,10.12
2019-03-28T01:51:46.695Z,10.18
2019-03-28T01:56:54.637Z,10.29
2019-03-28T02:02:01.816Z,9.96
2019-03-28T02:07:09.709Z,10.42
2019-03-28T02:12:17.144Z,10.05
2019-03-28T02:17:23.489Z,10.05
2019-03-28T02:22:31.074Z,9.73
2019-03-28T02:27:38.538Z,10.09
2019-03-28T02:32:45.491Z,10.30
2019-03-28T02:37:52.779Z,10.19
2019-03-28T02:42:58.830Z,10.10
2019-03-28T02:48:04.883Z,10.42
2019-03-28T02:53:10.879Z,9.95
2019-03-28T02:58:16.740Z,10.22
2019-03-28T03:03:22.627Z,10.22
2019-03-28T03:08:28.585Z,9.80
2019-03-28T03:13:34.448Z,10.09
2019-03-28T03:18:41.737Z,9.91
2019-03-28T03:23:47.511Z,10.18
2019-03-28T03:28:53.668Z,10.36
2019-03-28T03:34:00.546Z,10.40
2019-03-28T03:39:08.275Z,10.14
2019-03-28T03:44:13.880Z,10.21
2019-03-28T03:49:19.571Z,10.22
2019-03-28T03:54:26.898Z,10.07
2019-03-28T03:59:32.705Z,9.80
2019-03-28T04:04:39.923Z,10.10
2019-03-28T04:09:47.430Z,10.24
2019-03-28T04:14:53.389Z,9.95
2019-03-28T04:19:59.037Z,10.18
2019-03-28T04:25:06.172Z,9.65
2019-03-28T04:30:13.773Z,10.23
2019-03-28T04:35:19.591Z,9.92
2019-03-28T04:40:25.207Z,9.78
2019-03-28T04:45:32.286Z,9.87
2019-03-28T04:50:37.920Z,10.36
2019-03-28T04:55:43.953Z,10.54
2019-03-28T05:00:51.012Z,10.33
2019-03-28T05:05:57.339Z,9.77
2019-03-28T05:11:04.554Z,9.92
2019-03-28T05:16:11.071Z,9.92
2019-03-28T05:21:16.651Z,10.14
2019-03-28T05:26:22.221Z,10.05
2019-03-28T05:31:29.028Z,10.24
2019-03-28T05:36:34.771Z,10.00
2019-03-28T05:41:41.517Z,10.32
2019-03-28T05:46:47.086Z,9.87
2019-03-28T05:51:54.194Z,10.34
2019-03-28T05:56:59.783Z,10.41
2019-03-28T06:02:05.470Z,10.29
2019-03-28T06:07:11.878Z,10.13
2019-03-28T06:12:19.244Z,10.43
2019-03-28T06:17:25.473Z,10.39
2019-03-28T06:22:31.053Z,10.10
2019-03-28T06:27:36.944Z,10.32
2019-03-28T06:32:43.642Z,10.19
2019-03-28T06:37:51.606Z,10.34
2019-03-28T06:42:58.919Z,10.15
2019-03-28T06:48:05.724Z,10.43
2019-03-28T06:53:11.371Z,10.33
2019-03-28T06:58:17.111Z,10.54
2019-03-28T07:03:23.159Z,10.85
2019-03-28T07:08:29.471Z,11.13
2019-03-28T07:13:36.383Z,11.26
2019-03-28T07:18:42.645Z,10.58
2019-03-28T07:23:49.357Z,10.76
2019-03-28T07:28:54.939Z,10.36
2019-03-28T07:34:01.861Z,10.53
2019-03-28T07:39:08.206Z,10.56
2019-03-28T07:44:14.127Z,10.84
2019-03-28T07:49:21.474Z,10.81
2019-03-28T07:54:28.841Z,10.77
2019-03-28T07:59:36.302Z,10.92
2019-03-28T08:04:43.515Z,10.77
2019-03-28T08:09:49.254Z,10.66
2019-03-28T08:14:55.095Z,10.76
2019-03-28T08:20:01.409Z,10.55
2019-03-28T08:25:11.717Z,10.86
2019-03-28T08:30:19.642Z,10.76
2019-03-28T08:35:26.071Z,10.70
2019-03-28T08:40:39.716Z,10.69
2019-03-28T08:45:45.111Z,11.07
2019-03-28T08:50:50.750Z,10.97
2019-03-28T08:55:56.506Z,11.22
2019-03-28T09:01:02.468Z,10.74
2019-03-28T09:06:08.782Z,10.92
2019-03-28T09:11:14.729Z,10.92
2019-03-28T09:16:20.600Z,10.75
2019-03-28T09:21:26.437Z,10.79
2019-03-28T09:26:32.295Z,11.27
2019-03-28T09:31:38.214Z,11.52
2019-03-28T09:36:44.085Z,11.92
2019-03-28T09:41:50.417Z,11.58
2019-03-28T09:46:56.390Z,11.38
2019-03-28T09:52:03.934Z,11.39
2019-03-28T09:57:09.589Z,11.07
2019-03-28T10:02:15.332Z,11.41
2019-03-28T10:07:20.929Z,11.31
2019-03-28T10:12:26.571Z,11.36
2019-03-28T10:17:32.158Z,11.16
2019-03-28T10:22:38.601Z,11.26
2019-03-28T10:27:46.282Z,11.44
2019-03-28T10:32:52.878Z,11.52
2019-03-28T10:37:58.461Z,11.82
2019-03-28T10:43:06.265Z,11.81
2019-03-28T10:48:12.143Z,11.76
2019-03-28T10:53:18.066Z,11.35
2019-03-28T10:58:24.708Z,11.55
2019-03-28T11:03:30.585Z,11.34
2019-03-28T11:08:36.678Z,11.46
2019-03-28T11:13:43.257Z,11.72
2019-03-28T11:18:49.091Z,11.63
2019-03-28T11:23:55.236Z,12.26
2019-03-28T11:29:01.220Z,11.68
2019-03-28T11:34:07.166Z,12.47
2019-03-28T11:39:13.118Z,11.85
2019-03-28T11:44:19.162Z,11.84
2019-03-28T11:49:25.572Z,12.74
2019-03-28T11:54:33.001Z,12.04
2019-03-28T11:59:38.593Z,11.70
2019-03-28T12:04:44.232Z,11.58
2019-03-28T12:09:50.378Z,12.26
2019-03-28T12:14:55.949Z,11.83
2019-03-28T12:20:01.609Z,11.72
2019-03-28T12:25:07.612Z,11.76
2019-03-28T12:30:16.211Z,12.13
2019-03-28T12:35:22.511Z,12.00
2019-03-28T12:40:28.355Z,12.51
2019-03-28T12:45:35.223Z,12.25
2019-03-28T12:50:41.458Z,12.20
2019-03-28T12:55:49.961Z,12.49
2019-03-28T13:00:56.476Z,12.81
2019-03-28T13:06:02.201Z,12.45
2019-03-28T13:11:08.048Z,12.58
2019-03-28T13:16:14.257Z,12.63
2019-03-28T13:21:21.799Z,12.37
2019-03-28T13:26:28.169Z,13.03
2019-03-28T13:31:34.178Z,12.37
2019-03-28T13:36:40.064Z,12.97
2019-03-28T13:41:46.176Z,12.82
2019-03-28T13:46:52.147Z,12.64
2019-03-28T13:51:57.711Z,13.06
2019-03-28T13:57:05.572Z,12.82
2019-03-28T14:02:11.228Z,13.38
2019-03-28T14:07:17.652Z,13.85
2019-03-28T14:12:23.518Z,13.74
2019-03-28T14:17:29.769Z,12.92
2019-03-28T14:22:35.742Z,13.10
2019-03-28T14:27:42.934Z,12.27
2019-03-28T14:32:53.449Z,12.64
2019-03-28T14:37:56.710Z,12.86
2019-03-28T14:43:02.291Z,12.84
2019-03-28T14:48:07.900Z,13.33
2019-03-28T14:53:14.036Z,13.56
2019-03-28T14:58:22.507Z,13.21
2019-03-28T15:03:30.017Z,13.15
2019-03-28T15:08:37.205Z,13.47
2019-03-28T15:13:43.475Z,13.66
2019-03-28T15:18:49.221Z,12.66
2019-03-28T15:23:56.696Z,12.31
2019-03-28T15:29:03.432Z,13.26
2019-03-28T15:34:09.007Z,12.42
2019-03-28T15:39:14.863Z,12.56
2019-03-28T15:44:20.933Z,12.26
2019-03-28T15:49:27.932Z,12.57
2019-03-28T15:54:35.751Z,12.57
2019-03-28T15:59:41.733Z,12.46
2019-03-28T16:04:47.961Z,12.46
2019-03-28T16:09:55.173Z,12.00
2019-03-28T16:15:01.359Z,12.18
2019-03-28T16:20:09.076Z,12.83
2019-03-28T16:25:14.882Z,12.69
2019-03-28T16:30:25.738Z,12.47
2019-03-28T16:35:32.376Z,12.20
2019-03-28T16:40:38.317Z,12.27
2019-03-28T16:45:44.652Z,12.05
2019-03-28T16:50:50.523Z,12.27
2019-03-28T16:55:57.740Z,12.26
2019-03-28T17:01:03.690Z,12.10
2019-03-28T17:06:10.112Z,12.63
2019-03-28T17:11:16.112Z,12.12
2019-03-28T17:16:22.442Z,12.32
2019-03-28T17:21:28.782Z,12.21
2019-03-28T17:26:34.347Z,12.29
2019-03-28T17:31:40.573Z,12.27
2019-03-28T17:36:46.162Z,12.68
2019-03-28T17:41:52.012Z,11.92
2019-03-28T17:46:58.840Z,12.29
2019-03-28T17:52:04.418Z,12.49
2019-03-28T17:57:10.120Z,12.40
2019-03-28T18:02:16.715Z,12.41
2019-03-28T18:07:22.766Z,12.02
2019-03-28T18:12:28.945Z,12.32
2019-03-28T18:17:34.579Z,12.95
2019-03-28T18:22:40.180Z,12.56
2019-03-28T18:27:45.897Z,12.38
2019-03-28T18:32:51.966Z,12.31
2019-03-28T18:37:58.220Z,12.45
2019-03-28T18:43:04.230Z,12.34
2019-03-28T18:48:11.247Z,12.45
2019-03-28T18:53:17.297Z,12.27
2019-03-28T18:58:23.543Z,12.16
2019-03-28T19:03:29.737Z,12.16
2019-03-28T19:08:37.390Z,12.67
2019-03-28T19:13:43.384Z,12.47
2019-03-28T19:18:49.352Z,12.09
2019-03-28T19:23:55.554Z,12.77
2019-03-28T19:29:01.841Z,12.28
2019-03-28T19:34:07.795Z,12.17
2019-03-28T19:39:16.576Z,12.55
2019-03-28T19:44:25.601Z,11.89
2019-03-28T19:49:30.437Z,12.05
2019-03-28T19:54:36.198Z,12.16
2019-03-28T19:59:42.352Z,12.01
2019-03-28T20:04:48.254Z,12.09
2019-03-28T20:09:57.323Z,12.54
2019-03-28T20:15:03.670Z,12.53
2019-03-28T20:20:10.029Z,12.45
2019-03-28T20:25:15.712Z,12.83
2019-03-28T20:30:22.581Z,12.92
2019-03-28T20:35:29.800Z,13.16
2019-03-28T20:40:36.030Z,13.08
2019-03-28T20:45:42.002Z,12.93
2019-03-28T20:50:48.284Z,12.82
2019-03-28T20:55:54.392Z,13.45
2019-03-28T21:01:00.166Z,13.67
2019-03-28T21:06:15.225Z,13.26
2019-03-28T21:11:13.821Z,13.28
2019-03-28T21:16:19.485Z,13.44
2019-03-28T21:21:25.598Z,13.58
2019-03-28T21:26:33.256Z,12.99
2019-03-28T21:31:49.301Z,13.13
2019-03-28T21:36:46.267Z,12.82
2019-03-28T21:41:52.751Z,12.40
2019-03-28T21:46:58.888Z,12.82
2019-03-28T21:52:07.518Z,12.72
2019-03-28T21:57:14.581Z,12.26
2019-03-28T22:02:20.713Z,12.49
2019-03-28T22:07:26.649Z,12.91
2019-03-28T22:12:32.627Z,13.10
2019-03-28T22:17:38.585Z,13.27
2019-03-28T22:22:45.664Z,13.29
2019-03-28T22:27:51.570Z,13.46
2019-03-28T22:32:57.150Z,12.96
2019-03-28T22:38:03.103Z,12.87
2019-03-28T22:43:08.794Z,13.35
2019-03-28T22:48:14.836Z,13.34
2019-03-28T22:53:20.645Z,13.13
2019-03-28T22:58:27.577Z,12.86
2019-03-28T23:03:34.416Z,13.05
2019-03-28T23:08:40.400Z,13.22
2019-03-28T23:13:46.048Z,11.95
2019-03-28T23:18:51.624Z,12.30
2019-03-28T23:23:57.652Z,12.12
2019-03-28T23:29:04.735Z,12.72
2019-03-28T23:34:11.859Z,12.38
2019-03-28T23:39:18.399Z,12.04
2019-03-28T23:44:25.787Z,12.04
2019-03-28T23:49:33.002Z,12.39
2019-03-28T23:54:39.068Z,12.56
2019-03-28T23:59:45.090Z,12.68
